Map

Track Data

SID SEASON NUMBER BASIN SUBBASIN NAME ISO_TIME NATURE LAT LON WMO_WIND WMO_PRES WMO_AGENCY TRACK_TYPE DIST2LAND LANDFALL IFLAG USA_AGENCY USA_ATCF_ID USA_LAT USA_LON USA_RECORD USA_STATUS USA_WIND USA_PRES USA_SSHS USA_R34_NE USA_R34_SE USA_R34_SW USA_R34_NW USA_R50_NE USA_R50_SE USA_R50_SW USA_R50_NW USA_R64_NE USA_R64_SE USA_R64_SW USA_R64_NW USA_POCI USA_ROCI USA_RMW USA_EYE TOKYO_LAT TOKYO_LON TOKYO_GRADE TOKYO_WIND TOKYO_PRES TOKYO_R50_DIR TOKYO_R50_LONG TOKYO_R50_SHORT TOKYO_R30_DIR TOKYO_R30_LONG TOKYO_R30_SHORT TOKYO_LAND CMA_LAT CMA_LON CMA_CAT CMA_WIND CMA_PRES HKO_LAT HKO_LON HKO_CAT HKO_WIND HKO_PRES NEWDELHI_LAT NEWDELHI_LON NEWDELHI_GRADE NEWDELHI_WIND NEWDELHI_PRES NEWDELHI_CI NEWDELHI_DP NEWDELHI_POCI REUNION_LAT REUNION_LON REUNION_TYPE REUNION_WIND REUNION_PRES REUNION_TNUM REUNION_CI REUNION_RMW REUNION_R34_NE REUNION_R34_SE REUNION_R34_SW REUNION_R34_NW REUNION_R50_NE REUNION_R50_SE REUNION_R50_SW REUNION_R50_NW REUNION_R64_NE REUNION_R64_SE REUNION_R64_SW REUNION_R64_NW BOM_LAT BOM_LON BOM_TYPE BOM_WIND BOM_PRES BOM_TNUM BOM_CI BOM_RMW BOM_R34_NE BOM_R34_SE BOM_R34_SW BOM_R34_NW BOM_R50_NE BOM_R50_SE BOM_R50_SW BOM_R50_NW BOM_R64_NE BOM_R64_SE BOM_R64_SW BOM_R64_NW BOM_ROCI BOM_POCI BOM_EYE BOM_POS_METHOD BOM_PRES_METHOD NADI_LAT NADI_LON NADI_CAT NADI_WIND NADI_PRES WELLINGTON_LAT WELLINGTON_LON WELLINGTON_WIND WELLINGTON_PRES DS824_LAT DS824_LON DS824_STAGE DS824_WIND DS824_PRES TD9636_LAT TD9636_LON TD9636_STAGE TD9636_WIND TD9636_PRES TD9635_LAT TD9635_LON TD9635_WIND TD9635_PRES TD9635_ROCI NEUMANN_LAT NEUMANN_LON NEUMANN_CLASS NEUMANN_WIND NEUMANN_PRES MLC_LAT MLC_LON MLC_CLASS MLC_WIND MLC_PRES USA_GUST BOM_GUST BOM_GUST_PER REUNION_GUST REUNION_GUST_PER USA_SEAHGT USA_SEARAD_NE USA_SEARAD_SE USA_SEARAD_SW USA_SEARAD_NW STORM_SPEED STORM_DIR
2020290N31305 2020 88 NA NA EPSILON 2020-10-16 00:00:00 DS 31.2000 -55.4000 PROVISIONAL 1621 1621 O_____________ nhc_working_bt AL272020 31.2000 -55.4000 LO 20 1014 -3 1015 120 90 6 103
2020290N31305 2020 88 NA NA EPSILON 2020-10-16 03:00:00 DS 31.1353 -55.0674 PROVISIONAL 1645 1645 P_____________ AL272020 31.1353 -55.0674 LO 20 1014 -3 1015 120 90 4 103
2020290N31305 2020 88 NA NA EPSILON 2020-10-16 06:00:00 DS 31.1000 -54.9000 PROVISIONAL 1655 1650 O_____________ nhc_working_bt AL272020 31.1000 -54.9000 LO 20 1014 -3 1015 120 90 1 120
2020290N31305 2020 88 NA NA EPSILON 2020-10-16 09:00:00 DS 31.1075 -54.9975 PROVISIONAL 1650 1640 P_____________ AL272020 31.1075 -54.9975 LO 20 1013 -3 1015 120 90 3 270
2020290N31305 2020 88 NA NA EPSILON 2020-10-16 12:00:00 DS 31.1000 -55.2000 PROVISIONAL 1640 1636 O_____________ nhc_working_bt AL272020 31.1000 -55.2000 LO 20 1013 -3 1015 120 90 3 246
2020290N31305 2020 88 NA NA EPSILON 2020-10-16 15:00:00 DS 30.9999 -55.2850 PROVISIONAL 1645 1645 P_____________ AL272020 30.9999 -55.2850 LO 22 1013 -3 1016 180 90 3 221
2020290N31305 2020 88 NA NA EPSILON 2020-10-16 18:00:00 DS 30.9000 -55.4000 PROVISIONAL 1650 1641 O_____________ nhc_working_bt AL272020 30.9000 -55.4000 LO 25 1013 -3 1017 240 90 3 251
2020290N31305 2020 88 NA NA EPSILON 2020-10-16 21:00:00 DS 30.9000 -55.6198 PROVISIONAL 1641 1628 P_____________ AL272020 30.9000 -55.6198 LO 27 1011 -3 1016 245 95 4 270
2020290N31305 2020 88 NA NA EPSILON 2020-10-17 00:00:00 DS 30.9000 -55.9000 PROVISIONAL 1628 1614 O_____________ nhc_working_bt AL272020 30.9000 -55.9000 LO 30 1009 -3 1015 250 100 35 5 264
2020290N31305 2020 88 NA NA EPSILON 2020-10-17 03:00:00 DS 30.8451 -56.2150 PROVISIONAL 1624 1616 P_____________ AL272020 30.8451 -56.2150 LO 30 1009 -3 1015 250 100 6 249
2020290N31305 2020 88 NA NA EPSILON 2020-10-17 06:00:00 DS 30.7000 -56.5000 PROVISIONAL 1622 1613 O_____________ nhc_working_bt AL272020 30.7000 -56.5000 LO 30 1009 -3 1015 250 100 6 227
2020290N31305 2020 88 NA NA EPSILON 2020-10-17 09:00:00 DS 30.4299 -56.7254 PROVISIONAL 1613 1581 P_____________ AL272020 30.4299 -56.7254 LO 30 1008 -3 1014 260 100 7 203
2020290N31305 2020 88 NA NA EPSILON 2020-10-17 12:00:00 DS 30.1000 -56.8000 PROVISIONAL 1581 1559 O_____________ nhc_working_bt AL272020 30.1000 -56.8000 LO 30 1008 -3 1014 270 100 40 6 173
2020290N31305 2020 88 NA NA EPSILON 2020-10-17 15:00:00 DS 29.8001 -56.6294 PROVISIONAL 1565 1551 P_____________ AL272020 29.8001 -56.6294 LO 30 1008 -3 1014 270 100 7 150
2020290N31305 2020 88 NA NA EPSILON 2020-10-17 18:00:00 DS 29.5000 -56.4000 PROVISIONAL 1551 1531 O_____________ nhc_working_bt AL272020 29.5000 -56.4000 LO 30 1008 -3 1014 270 100 40 6 155
2020290N31305 2020 88 NA NA EPSILON 2020-10-17 21:00:00 DS 29.2224 -56.3202 PROVISIONAL 1531 1506 P_____________ AL272020 29.2224 -56.3202 LO 30 1007 -3 1013 270 100 6 172
2020290N31305 2020 88 NA NA EPSILON 2020-10-18 00:00:00 DS 28.9000 -56.3000 PROVISIONAL 1506 1472 O_____________ nhc_working_bt AL272020 28.9000 -56.3000 LO 30 1006 -3 1012 270 100 40 8 177
2020290N31305 2020 88 NA NA EPSILON 2020-10-18 03:00:00 DS 28.4725 -56.2774 PROVISIONAL 1472 1431 P_____________ AL272020 28.4725 -56.2774 LO 30 1005 -3 1011 270 100 9 0
2020290N31305 2020 88 NA NA EPSILON 2020-10-18 06:00:00 DS 28.0000 -56.3000 PROVISIONAL 1431 1392 O_____________ nhc_working_bt AL272020 28.0000 -56.3000 LO 30 1004 -3 1010 270 100 9 186
2020290N31305 2020 88 NA NA EPSILON 2020-10-18 09:00:00 DS 27.5500 -56.3775 PROVISIONAL 1384 1346 P_____________ AL272020 27.5500 -56.3775 LO 30 1004 -3 1010 265 75 9 191
2020290N31305 2020 88 NA NA EPSILON 2020-10-18 12:00:00 DS 27.1000 -56.5000 PROVISIONAL 1346 1293 O_____________ nhc_working_bt AL272020 27.1000 -56.5000 LO 30 1004 -3 1010 260 50 40 10 197
2020290N31305 2020 88 NA NA EPSILON 2020-10-18 15:00:00 DS 26.6050 -56.7030 PROVISIONAL 1293 1255 P_____________ AL272020 26.6050 -56.7030 LO 30 1003 -3 1009 265 70 9 197
2020290N31305 2020 88 NA NA EPSILON 2020-10-18 18:00:00 DS 26.2000 -56.8000 PROVISIONAL 1255 1248 O_____________ nhc_working_bt AL272020 26.2000 -56.8000 LO 30 1003 -3 1009 270 90 40 6 175
2020290N31305 2020 88 NA NA EPSILON 2020-10-18 21:00:00 DS 26.0049 -56.6399 PROVISIONAL 1256 1256 P_____________ AL272020 26.0049 -56.6399 LO 30 1003 -3 1009 270 90 5 124
2020290N31305 2020 88 NA NA EPSILON 2020-10-19 00:00:00 DS 25.9000 -56.3000 PROVISIONAL 1271 1271 O_____________ nhc_working_bt AL272020 25.9000 -56.3000 LO 30 1003 -3 1009 270 90 40 8 110
2020290N31305 2020 88 NA NA EPSILON 2020-10-19 03:00:00 DS 25.7205 -55.7896 PROVISIONAL 1297 1297 P_____________ AL272020 25.7205 -55.7896 LO 30 1003 -3 1009 270 90 8 110
2020290N31305 2020 88 NA NA EPSILON 2020-10-19 06:00:00 TS 25.6333 -55.4667 PROVISIONAL 1314 1314 O_____________ nhc_working_bt AL272020 25.6000 -55.4000 TD 30 1003 -1 1009 270 90 40 3 100
2020290N31305 2020 88 NA NA EPSILON 2020-10-19 09:00:00 TS 25.6688 -55.4550 PROVISIONAL 1321 1321 P_____________ AL272020 25.6349 -55.5051 TD 32 1001 -1 1009 300 75 1 13
2020290N31305 2020 88 NA NA EPSILON 2020-10-19 12:00:00 TS 25.7000 -55.4600 PROVISIONAL 1321 1321 O_____________ nhc_working_bt AL272020 25.7000 -55.7000 TS 35 1000 0 70 40 60 1009 330 60 45 12 300 60 300 0 70
2020290N31305 2020 88 NA NA EPSILON 2020-10-19 15:00:00 TS 25.6825 -55.4167 PROVISIONAL 1329 1323 P_____________ AL272020 25.6876 -55.5800 TS 37 999 0 155 50 150 1008 330 105 12 300 60 300 1 153
2020290N31305 2020 88 NA NA EPSILON 2020-10-19 18:00:00 TS 25.6000 -55.4000 PROVISIONAL 1323 1310 O_____________ nhc_working_bt AL272020 25.6000 -55.4000 TS 40 998 0 240 60 240 1008 330 150 50 12 300 60 300 3 171
2020290N31305 2020 88 NA NA EPSILON 2020-10-19 21:00:00 TS 25.3850 -55.3699 PROVISIONAL 1310 1303 P_____________ AL272020 25.3850 -55.3500 TS 40 998 0 240 60 240 1008 330 150 12 345 60 345 4 168
2020290N31305 2020 88 NA NA EPSILON 2020-10-20 00:00:00 TS 25.2000 -55.3000 PROVISIONAL 1306 1306 O_____________ nhc_working_bt AL272020 25.2000 -55.3000 TS 40 998 0 240 60 240 1008 330 150 50 12 390 60 30 390 3 139
2020290N31305 2020 88 NA NA EPSILON 2020-10-20 03:00:00 TS 25.1750 -55.1649 PROVISIONAL 1314 1314 P_____________ AL272020 25.1750 -55.1649 TS 42 997 0 240 60 240 1008 330 120 12 390 60 30 390 3 70
2020290N31305 2020 88 NA NA EPSILON 2020-10-20 06:00:00 TS 25.3000 -55.0000 PROVISIONAL 1337 1337 O_____________ nhc_working_bt AL272020 25.3000 -55.0000 TS 45 996 0 240 60 50 240 1008 330 90 50 12 390 60 30 390 5 48
2020290N31305 2020 88 NA NA EPSILON 2020-10-20 09:00:00 TS 25.4949 -54.7686 PROVISIONAL 1366 1366 P_____________ AL272020 25.4949 -54.7686 TS 47 995 0 250 60 50 240 1009 330 80 12 465 60 150 435 7 24
2020290N31305 2020 88 NA NA EPSILON 2020-10-20 12:00:00 TS 25.9000 -54.7000 PROVISIONAL 1399 1399 O_____________ nhc_working_bt AL272020 25.9000 -54.7000 TS 50 994 0 260 60 50 240 60 1010 330 70 55 12 540 60 270 480 12 349
2020290N31305 2020 88 NA NA EPSILON 2020-10-20 15:00:00 TS 26.6278 -55.0159 PROVISIONAL 1421 1420 P_____________ AL272020 26.6278 -55.0159 TS 52 993 0 270 75 40 270 65 1009 315 70 12 540 90 270 480 17 335
2020290N31305 2020 88 NA NA EPSILON 2020-10-20 18:00:00 TS 27.4000 -55.5000 PROVISIONAL 1441 1441 O_____________ nhc_working_bt AL272020 27.4000 -55.5000 TS 55 992 0 280 90 30 300 70 30 50 1008 300 70 65 12 540 120 270 480 15 330
2020290N31305 2020 88 NA NA EPSILON 2020-10-20 21:00:00 TS 27.9194 -55.8559 PROVISIONAL 1451 1451 P_____________ AL272020 27.9244 -55.8558 TS 60 989 0 280 90 40 300 70 30 50 1009 300 45 12 540 135 315 495 11 322
2020290N31305 2020 88 NA NA EPSILON 2020-10-21 00:00:00 TS 28.3000 -56.3000 PROVISIONAL 1456 1443 O_____________ nhc_working_bt AL272020 28.3000 -56.3000 HU 65 987 1 280 90 50 300 70 30 50 20 20 1010 300 20 80 12 540 150 360 510 12 306
2020290N31305 2020 88 NA NA EPSILON 2020-10-21 03:00:00 TS 28.6490 -56.9845 PROVISIONAL 1436 1418 P_____________ AL272020 28.6106 -56.9847 HU 70 981 1 330 85 50 300 60 30 45 20 20 1010 300 20 12 670 255 440 480 14 295
2020290N31305 2020 88 NA NA EPSILON 2020-10-21 06:00:00 TS 28.8667 -57.7000 PROVISIONAL 1421 1393 O_____________ nhc_working_bt AL272020 28.8000 -57.7000 HU 75 976 1 380 80 50 300 50 30 20 40 20 15 20 1011 300 20 90 12 800 360 520 450 11 282
2020290N31305 2020 88 NA NA EPSILON 2020-10-21 09:00:00 TS 28.8878 -58.2313 PROVISIONAL 1393 1366 P_____________ AL272020 28.8494 -58.2311 HU 80 972 1 380 80 50 300 50 30 20 40 20 15 20 1011 300 20 12 775 375 515 465 9 272
2020290N31305 2020 88 NA NA EPSILON 2020-10-21 12:00:00 TS 28.9000 -58.7000 PROVISIONAL 1366 1360 O_____________ nhc_working_bt AL272020 28.9000 -58.7000 HU 85 968 2 380 80 50 300 50 30 20 40 20 15 20 1012 300 20 100 12 750 390 510 480 9 287
2020290N31305 2020 88 NA NA EPSILON 2020-10-21 15:00:00 TS 29.1450 -59.2217 PROVISIONAL 1360 1360 P_____________ AL272020 29.1500 -59.2218 HU 92 961 2 385 100 85 300 45 30 20 35 20 15 20 1012 300 12 12 750 390 510 480 10 300
2020290N31305 2020 88 NA NA EPSILON 2020-10-21 18:00:00 TS 29.4000 -59.7000 PROVISIONAL 1367 1349 O_____________ nhc_working_bt AL272020 29.4000 -59.7000 HU 100 955 3 390 120 120 300 40 30 20 30 20 15 15 20 1012 300 5 120 12 750 390 510 480 8 290
2020290N31305 2020 88 NA NA EPSILON 2020-10-21 21:00:00 TS 29.4249 -60.1132 PROVISIONAL 1349 1341 P_____________ AL272020 29.4349 -60.1032 HU 100 953 3 375 120 120 300 40 30 20 30 20 15 15 20 1012 290 5 12 735 375 480 480 6 279
2020290N31305 2020 88 NA NA EPSILON 2020-10-22 00:00:00 TS 29.5000 -60.4000 PROVISIONAL 1347 1347 O_____________ nhc_working_bt AL272020 29.5000 -60.4000 HU 100 952 3 360 120 120 300 40 30 20 30 20 15 15 20 1012 280 5 120 12 720 360 450 480 6 326
2020290N31305 2020 88 NA NA EPSILON 2020-10-22 03:00:00 TS 29.9039 -60.4886 PROVISIONAL 1384 1384 P_____________ AL272020 29.8273 -60.5650 HU 95 955 2 315 160 120 285 40 30 20 30 20 15 15 20 1012 297 5 12 700 420 525 480 8 350
2020290N31305 2020 88 NA NA EPSILON 2020-10-22 06:00:00 TS 30.3333 -60.5667 PROVISIONAL 1422 1422 O_____________ nhc_working_bt AL272020 30.2000 -60.7000 HU 90 958 2 270 200 120 270 40 30 20 30 20 15 15 20 1013 315 5 115 12 680 480 600 480 7 328
2020290N31305 2020 88 NA NA EPSILON 2020-10-22 09:00:00 TS 30.4620 -60.8885 PROVISIONAL 1432 1426 P_____________ AL272020 30.3851 -60.9651 HU 87 961 2 270 200 120 270 50 35 20 35 17 13 13 17 1013 337 7 12 670 510 585 510 6 296
2020290N31305 2020 88 NA NA EPSILON 2020-10-22 12:00:00 TS 30.6000 -61.2000 PROVISIONAL 1433 1418 O_____________ nhc_working_bt AL272020 30.6000 -61.2000 HU 85 965 2 270 200 120 270 60 40 20 40 15 11 11 15 1013 360 10 100 12 660 540 570 540 7 329
2020290N31305 2020 88 NA NA EPSILON 2020-10-22 15:00:00 TS 31.0174 -61.2828 PROVISIONAL 1418 1373 P_____________ AL272020 31.0274 -61.2728 HU 80 966 1 225 205 120 225 60 40 20 40 15 11 11 15 1013 360 10 12 645 450 540 525 9 355
2020290N31305 2020 88 NA NA EPSILON 2020-10-22 18:00:00 TS 31.5000 -61.3000 PROVISIONAL 1373 1330 O_____________ nhc_working_bt AL272020 31.5000 -61.3000 HU 75 968 1 180 210 120 180 60 40 20 40 15 11 11 15 1013 360 10 90 12 630 360 510 510 9 354
2020290N31305 2020 88 NA NA EPSILON 2020-10-22 21:00:00 TS 31.8725 -61.3999 PROVISIONAL 1330 1297 P_____________ AL272020 31.8725 -61.3999 HU 75 968 1 180 210 120 180 60 40 20 40 15 11 11 15 1013 360 10 7 347
2020290N31305 2020 88 NA NA EPSILON 2020-10-23 00:00:00 TS 32.2000 -61.5000 PROVISIONAL 1297 1264 O_____________ nhc_working_bt AL272020 32.2000 -61.5000 HU 75 968 1 180 210 120 180 60 40 20 40 15 11 11 15 1014 360 10 90 6 347
2020290N31305 2020 88 NA NA EPSILON 2020-10-23 03:00:00 TS 32.4925 -61.5651 PROVISIONAL 1264 1233 P_____________ AL272020 32.4925 -61.5651 HU 75 968 1 180 210 120 180 65 55 25 50 15 13 11 15 1014 360 10 6 352
2020290N31305 2020 88 NA NA EPSILON 2020-10-23 06:00:00 TS 32.8000 -61.6000 PROVISIONAL 1233 1201 O_____________ nhc_working_bt AL272020 32.8000 -61.6000 HU 75 968 1 180 210 120 180 70 70 30 60 15 15 11 15 1014 360 10 90 12 600 360 560 480 7 357
2020290N31305 2020 88 NA NA EPSILON 2020-10-23 09:00:00 TS 33.1500 -61.6076 PROVISIONAL 1190 1147 P_____________ AL272020 33.1550 -61.6076 HU 75 968 1 200 215 120 180 70 70 30 60 15 15 11 15 1014 360 10 12 600 360 580 480 8 1
2020290N31305 2020 88 NA NA EPSILON 2020-10-23 12:00:00 TS 33.6000 -61.6000 PROVISIONAL 1147 1083 O_____________ nhc_working_bt AL272020 33.6000 -61.6000 HU 75 968 1 221 221 120 180 70 70 30 60 15 15 11 15 1014 360 10 90 12 600 360 600 480 11 2
2020290N31305 2020 88 NA NA EPSILON 2020-10-23 15:00:00 TS 34.2133 -61.5706 PROVISIONAL 1083 1019 P_____________ AL272020 34.1850 -61.5706 HU 75 968 1 230 230 120 210 110 70 40 105 15 15 11 15 1014 360 10 12 510 360 480 480 13 0
2020290N31305 2020 88 NA NA EPSILON 2020-10-23 18:00:00 TS 34.8667 -61.6000 PROVISIONAL 1008 949 O_____________ nhc_working_bt AL272020 34.8000 -61.6000 HU 75 968 1 240 240 120 240 150 70 50 150 15 15 11 15 1014 360 10 90 12 420 360 360 480 12 352
2020290N31305 2020 88 NA NA EPSILON 2020-10-23 21:00:00 TS 35.4301 -61.7917 PROVISIONAL 949 891 P_____________ AL272020 35.3151 -61.7918 HU 72 969 1 240 240 120 240 150 70 50 150 22 22 13 22 1014 370 20 12 390 390 360 480 11 343
2020290N31305 2020 88 NA NA EPSILON 2020-10-24 00:00:00 TS 35.9333 -62.0000 PROVISIONAL 891 835 O_____________ nhc_working_bt AL272020 35.8000 -62.0000 HU 70 970 1 240 240 120 240 150 70 50 150 30 30 15 30 1014 380 30 85 12 360 420 360 480 10 344
2020290N31305 2020 88 NA NA EPSILON 2020-10-24 03:00:00 TS 36.4088 -62.1471 PROVISIONAL 835 793 P_____________ AL272020 36.3372 -62.1470 HU 67 971 1 275 240 150 255 150 80 60 140 30 30 27 35 1014 380 30 12 375 420 375 465 9 355
2020290N31305 2020 88 NA NA EPSILON 2020-10-24 06:00:00 TS 36.8000 -62.1000 PROVISIONAL 793 778 O_____________ nhc_working_bt AL272020 36.8000 -62.1000 HU 65 972 1 311 240 180 270 150 90 70 130 30 30 40 40 1014 380 30 80 12 390 420 390 450 7 26
2020290N31305 2020 88 NA NA EPSILON 2020-10-24 09:00:00 TS 37.0144 -61.7852 PROVISIONAL 781 767 P_____________ AL272020 37.0196 -61.7753 HU 67 965 1 330 240 180 270 165 90 70 130 40 30 40 45 1014 380 30 12 405 420 390 435 9 55
2020290N31305 2020 88 NA NA EPSILON 2020-10-24 12:00:00 TS 37.3000 -61.2000 PROVISIONAL 771 747 O_____________ nhc_working_bt AL272020 37.3000 -61.2000 HU 70 958 1 350 240 180 270 180 90 70 130 50 30 40 50 1014 380 30 85 12 420 420 390 420 14 52
2020290N31305 2020 88 NA NA EPSILON 2020-10-24 15:00:00 TS 37.8693 -60.4152 PROVISIONAL 746 727 P_____________ AL272020 37.9023 -60.4817 HU 70 958 1 360 265 190 270 180 125 100 135 55 65 1012 370 40 12 445 435 405 410 19 46
2020290N31305 2020 88 NA NA EPSILON 2020-10-24 18:00:00 TS 38.6333 -59.4667 PROVISIONAL 727 666 O_____________ nhc_working_bt AL272020 38.7000 -59.6000 HU 70 958 1 370 290 200 270 180 160 130 140 80 90 1010 360 50 85 12 470 450 420 400 22 42
2020290N31305 2020 88 NA NA EPSILON 2020-10-24 21:00:00 TS 39.5077 -58.4986 PROVISIONAL 668 608 P_____________ AL272020 39.5843 -58.6519 HU 67 959 1 285 295 265 270 140 150 100 85 60 1010 360 45 12 475 465 470 400 24 41
2020290N31305 2020 88 NA NA EPSILON 2020-10-25 00:00:00 TS 40.4333 -57.4667 PROVISIONAL 608 565 O_____________ nhc_working_bt AL272020 40.5000 -57.6000 HU 65 960 1 200 300 331 270 100 140 70 30 40 1010 360 40 80 12 480 480 520 400 24 40
2020290N31305 2020 88 NA NA EPSILON 2020-10-25 03:00:00 TS 41.3151 -56.4921 PROVISIONAL 570 520 P_____________ AL272020 41.3488 -56.5590 HU 65 960 1 200 300 331 270 100 140 70 30 40 1007 360 40 12 480 480 520 400 23 44
2020290N31305 2020 88 NA NA EPSILON 2020-10-25 06:00:00 TS 42.1000 -55.3000 PROVISIONAL 517 444 O_____________ nhc_working_bt AL272020 42.1000 -55.3000 HU 65 960 1 200 300 331 270 100 140 70 30 40 1004 360 40 80 12 480 480 520 400 24 57
2020290N31305 2020 88 NA NA EPSILON 2020-10-25 09:00:00 TS 42.6361 -53.7424 PROVISIONAL 444 391 P_____________ AL272020 42.6308 -53.7324 HU 65 960 1 200 300 331 270 100 140 70 30 40 1004 360 40 12 480 510 545 395 28 67
2020290N31305 2020 88 NA NA EPSILON 2020-10-25 12:00:00 TS 43.2000 -51.8000 PROVISIONAL 393 385 O_____________ nhc_working_bt AL272020 43.2000 -51.8000 HU 65 960 1 200 300 331 270 100 140 70 30 40 1004 360 40 80 12 480 540 570 390 34 66
2020290N31305 2020 88 NA NA EPSILON 2020-10-25 15:00:00 TS 44.0081 -49.5007 PROVISIONAL 408 405 P_____________ AL272020 44.0081 -49.5007 HU 62 962 0 215 310 321 270 100 160 115 60 1002 330 55 12 510 545 625 375 39 63
2020290N31305 2020 88 NA NA EPSILON 2020-10-25 18:00:00 TS 45.0000 -46.9000 PROVISIONAL 510 510 O_____________ nhc_working_bt AL272020 45.0000 -46.9000 TS 60 964 0 230 320 311 270 100 180 160 90 1000 300 70 75 12 540 550 680 360 43 61
2020290N31305 2020 88 NA NA EPSILON 2020-10-25 21:00:00 TS 46.1300 -44.1615 PROVISIONAL 655 655 P_____________ AL272020 46.1300 -44.1615 TS 60 966 0 235 355 335 300 95 180 170 995 240 80 12 570 610 765 345 45 59
2020290N31305 2020 88 NA NA EPSILON 2020-10-26 00:00:00 TS 47.3000 -41.3000 PROVISIONAL 846 O_____________ nhc_working_bt AL272020 47.3000 -41.3000 TS 60 968 0 240 390 360 331 90 180 180 990 180 90 75 12 600 670 850 330 45 59

About IBTrACS Database

This database is a web-friendly format of International Best Track Archive for Climate Stewardship (IBTrACS), a global best track data archive curated by NOAA dating back to 1842.

Updated: 2021-10-21